Terminal Aerodrome Forecast
Issued by NWS Binghamton, NY

Home | Current Version | Previous Version | Text Only | Print | Product List | Glossary On
Versions: 1 2 3 4 5 6 7 8 9 10 11 12 13 14 15 16
000
FTUS41 KBGM 301125
TAFBGM
TAF
KBGM 301125Z 3012/3112 20006KT 4SM BR SCT100 BKN200
     FM301400 21007KT 5SM BR OVC040
      TEMPO 3014/3017 3SM -SHRA OVC025
     FM301800 29010G18KT P6SM BKN050
     FM302200 29007KT P6SM FEW060=

USA.gov is the U.S. government's official web portal to all federal, state and local government web resources and services.